Osg Honour — WDD6584 — position and weather

sailwx.info

Track history (hours):
 
Tides and Currents Weather Stations Pressure Air Temp Water Temp Dewpoint Dewpoint Depression Visibility Wind Speed Wind Dir Waves Ship Positions

Osg Honour

Owner: OSG Ship Management Inc., Tampa, FL. More information available from US FCC via Universal Licensing System and Coast Guard Vessel Documentation Center.

Last reported at 2018-Jan-10 21:11 UTC. Time now 2018-Jan-19 02:03 UTC.
Position N 27°33' W 090°23'.
Warning: this ship's position is 8 days out of date.

Length 181 m; draft 8 m.

Type: Tug. MMSI: 367174890.

Date/timePositionNaut miles runAvg speedWind from/ knotsBaromVisibWave heightAir tempDewpointWater temp
2018-Jan-10 21:11N 27°33' W 090°23'3 9.5
2018-Jan-10 20:54N 27°34' W 090°26'4 9.7
2018-Jan-10 20:29N 27°34' W 090°31'5 9.7
2018-Jan-10 19:59N 27°35' W 090°36'5 9.7
2018-Jan-10 19:29N 27°36' W 090°42'5 9.8
2018-Jan-10 19:00N 27°37' W 090°47'5 9.7
2018-Jan-10 18:29N 27°37' W 090°52'5 9.7
2018-Jan-10 18:00N 27°38' W 090°58'5 9.8
2018-Jan-10 17:28N 27°39' W 091°04'227 9.1
2018-Jan-09 16:33N 29°23' W 094°53'0 4.9
2018-Jan-09 16:29N 29°23' W 094°53'0 0.1
2018-Jan-09 14:47N 29°22' W 094°53'0 0.0
2018-Jan-09 14:12N 29°22' W 094°53'  
2018-Jan-04 18:02N 27°48' W 090°28'0 9.4
2018-Jan-04 17:59N 27°48' W 090°27'  
2018-Jan-01 15:00N 25°30' W 080°02'5 9.5
2018-Jan-01 14:30N 25°35' W 080°02'4 9.0
2018-Jan-01 14:00N 25°39' W 080°01'4 8.9
2018-Jan-01 13:30N 25°44' W 080°01'4 8.9
2018-Jan-01 13:00N 25°48' W 080°01'10 9.7
2018-Jan-01 12:00N 25°58' W 080°00'5 9.5
2018-Jan-01 11:31N 26°03' W 080°00'5 9.6
2018-Jan-01 11:01N 26°07' W 079°59'5 9.9
2018-Jan-01 10:30N 26°12' W 079°58'5 9.8
2018-Jan-01 10:01N 26°17' W 079°59'5 9.9
2018-Jan-01 09:30N 26°22' W 079°58'11 9.0
2018-Jan-01 08:15N 26°33' W 079°57'2 8.2
2018-Jan-01 08:00N 26°35' W 079°57'4 8.1
2018-Jan-01 07:30N 26°39' W 079°57'4 8.4
2018-Jan-01 07:00N 26°43' W 079°57'8 8.1
2018-Jan-01 06:00N 26°52' W 079°56'3 7.0
2018-Jan-01 05:30N 26°55' W 079°56'3 6.5
2018-Jan-01 05:00N 26°58' W 079°56'  
Track history (hours):
 
Tides and Currents Weather Stations Pressure Air Temp Water Temp Dewpoint Dewpoint Depression Visibility Wind Speed Wind Dir Waves Ship Positions

Osg Honour

Owner: OSG Ship Management Inc., Tampa, FL. More information available from US FCC via Universal Licensing System and Coast Guard Vessel Documentation Center.

Last reported at 2018-Jan-10 21:11 UTC. Time now 2018-Jan-19 02:03 UTC.
Position N 27°33' W 090°23'.
Warning: this ship's position is 8 days out of date.

Length 181 m; draft 8 m.

Type: Tug. MMSI: 367174890.

Date/timePositionNaut miles runAvg speedWind from/ knotsBaromVisibWave heightAir tempDewpointWater temp
2018-Jan-10 21:11N 27°33' W 090°23'3 9.5
2018-Jan-10 20:54N 27°34' W 090°26'4 9.7
2018-Jan-10 20:29N 27°34' W 090°31'5 9.7
2018-Jan-10 19:59N 27°35' W 090°36'5 9.7
2018-Jan-10 19:29N 27°36' W 090°42'5 9.8
2018-Jan-10 19:00N 27°37' W 090°47'5 9.7
2018-Jan-10 18:29N 27°37' W 090°52'5 9.7
2018-Jan-10 18:00N 27°38' W 090°58'5 9.8
2018-Jan-10 17:28N 27°39' W 091°04'227 9.1
2018-Jan-09 16:33N 29°23' W 094°53'0 4.9
2018-Jan-09 16:29N 29°23' W 094°53'0 0.1
2018-Jan-09 14:47N 29°22' W 094°53'0 0.0
2018-Jan-09 14:12N 29°22' W 094°53'  
2018-Jan-04 18:02N 27°48' W 090°28'0 9.4
2018-Jan-04 17:59N 27°48' W 090°27'  
2018-Jan-01 15:00N 25°30' W 080°02'5 9.5
2018-Jan-01 14:30N 25°35' W 080°02'4 9.0
2018-Jan-01 14:00N 25°39' W 080°01'4 8.9
2018-Jan-01 13:30N 25°44' W 080°01'4 8.9
2018-Jan-01 13:00N 25°48' W 080°01'10 9.7
2018-Jan-01 12:00N 25°58' W 080°00'5 9.5
2018-Jan-01 11:31N 26°03' W 080°00'5 9.6
2018-Jan-01 11:01N 26°07' W 079°59'5 9.9
2018-Jan-01 10:30N 26°12' W 079°58'5 9.8
2018-Jan-01 10:01N 26°17' W 079°59'5 9.9
2018-Jan-01 09:30N 26°22' W 079°58'11 9.0
2018-Jan-01 08:15N 26°33' W 079°57'2 8.2
2018-Jan-01 08:00N 26°35' W 079°57'4 8.1
2018-Jan-01 07:30N 26°39' W 079°57'4 8.4
2018-Jan-01 07:00N 26°43' W 079°57'8 8.1
2018-Jan-01 06:00N 26°52' W 079°56'3 7.0
2018-Jan-01 05:30N 26°55' W 079°56'3 6.5
2018-Jan-01 05:00N 26°58' W 079°56'  

Dump ship's entire track history